createdAt,value
2022-09-16T00:01:54.380Z,2.93
2022-09-16T00:04:21.015Z,3.80
2022-09-16T00:06:47.584Z,2.67
2022-09-16T00:09:14.193Z,2.47
2022-09-16T00:11:40.761Z,2.73
2022-09-16T00:14:07.375Z,3.37
2022-09-16T00:16:34.085Z,2.40
2022-09-16T00:19:01.790Z,2.67
2022-09-16T00:21:29.611Z,2.60
2022-09-16T00:23:56.519Z,2.83
2022-09-16T00:26:23.372Z,2.83
2022-09-16T00:28:50.738Z,2.80
2022-09-16T00:31:18.240Z,2.90
2022-09-16T00:33:44.871Z,3.00
2022-09-16T00:36:14.882Z,3.60
2022-09-16T00:38:42.226Z,2.40
2022-09-16T00:41:12.802Z,2.43
2022-09-16T00:44:00.079Z,2.13
2022-09-16T00:46:46.246Z,2.10
2022-09-16T00:49:18.435Z,1.97
2022-09-16T00:51:48.405Z,1.70
2022-09-16T00:54:16.740Z,2.10
2022-09-16T00:56:47.077Z,1.90
2022-09-16T00:59:42.786Z,2.37
2022-09-16T01:02:14.295Z,2.27
2022-09-16T01:04:51.122Z,2.10
2022-09-16T01:07:37.850Z,2.30
2022-09-16T01:10:04.790Z,2.90
2022-09-16T01:12:32.558Z,2.47
2022-09-16T01:15:00.704Z,2.23
2022-09-16T01:17:34.820Z,2.40
2022-09-16T01:20:29.201Z,2.87
2022-09-16T01:23:14.197Z,2.60
2022-09-16T01:26:20.527Z,2.80
2022-09-16T01:29:22.245Z,2.73
2022-09-16T01:32:20.337Z,3.40
2022-09-16T01:34:46.831Z,3.20
2022-09-16T01:37:38.971Z,3.33
2022-09-16T01:40:23.629Z,3.10
2022-09-16T01:42:54.617Z,3.30
2022-09-16T01:45:35.672Z,4.20
2022-09-16T01:48:13.857Z,3.90
2022-09-16T01:51:25.185Z,3.60
2022-09-16T01:54:12.396Z,3.47
2022-09-16T01:56:44.162Z,3.43
2022-09-16T01:59:20.449Z,3.50
2022-09-16T02:01:56.600Z,3.63
2022-09-16T02:04:29.745Z,3.60
2022-09-16T02:06:59.327Z,3.43
2022-09-16T02:09:31.979Z,3.57
2022-09-16T02:12:05.367Z,3.10
2022-09-16T02:14:35.937Z,3.10
2022-09-16T02:17:07.218Z,2.80
2022-09-16T02:19:46.016Z,2.93
2022-09-16T02:22:20.264Z,3.70
2022-09-16T02:24:48.358Z,3.10
2022-09-16T02:27:17.942Z,2.87
2022-09-16T02:29:55.406Z,2.20
2022-09-16T02:32:26.546Z,2.43
2022-09-16T02:34:54.548Z,2.20
2022-09-16T02:37:34.991Z,2.40
2022-09-16T02:40:11.007Z,2.10
2022-09-16T02:42:37.649Z,2.00
2022-09-16T02:45:05.273Z,2.07
2022-09-16T02:47:50.459Z,2.07
2022-09-16T02:50:30.633Z,2.13
2022-09-16T02:53:04.238Z,2.57
2022-09-16T02:55:41.381Z,1.73
2022-09-16T02:58:09.375Z,1.80
2022-09-16T03:00:43.195Z,1.87
2022-09-16T03:03:09.972Z,1.87
2022-09-16T03:05:36.626Z,1.80
2022-09-16T03:08:04.073Z,1.70
2022-09-16T03:10:39.659Z,2.00
2022-09-16T03:13:16.963Z,1.77
2022-09-16T03:16:11.524Z,1.90
2022-09-16T03:18:50.963Z,2.50
2022-09-16T03:21:45.342Z,2.23
2022-09-16T03:24:45.534Z,2.17
2022-09-16T03:27:18.852Z,2.30
2022-09-16T03:29:57.372Z,2.73
2022-09-16T03:32:30.222Z,3.00
2022-09-16T03:35:08.087Z,2.17
2022-09-16T03:37:37.477Z,2.47
2022-09-16T03:40:09.417Z,2.93
2022-09-16T03:42:39.309Z,2.37
2022-09-16T03:45:06.738Z,1.93
2022-09-16T03:47:33.593Z,2.53
2022-09-16T03:50:00.122Z,2.13
2022-09-16T03:52:26.894Z,1.90
2022-09-16T03:54:53.486Z,1.70
2022-09-16T03:57:20.035Z,1.90
2022-09-16T03:59:46.556Z,2.10
2022-09-16T04:02:13.169Z,2.13
2022-09-16T04:04:39.982Z,2.07
2022-09-16T04:07:06.516Z,1.80
2022-09-16T04:09:33.068Z,1.93
2022-09-16T04:11:59.610Z,2.53
2022-09-16T04:14:26.175Z,2.10
2022-09-16T04:16:54.321Z,2.13
2022-09-16T04:19:20.992Z,1.40
2022-09-16T04:21:47.522Z,1.83
2022-09-16T04:24:14.210Z,1.77
2022-09-16T04:26:41.818Z,2.57
2022-09-16T04:29:08.509Z,2.20
2022-09-16T04:31:35.484Z,1.83
2022-09-16T04:34:03.869Z,1.87
2022-09-16T04:36:31.276Z,1.77
2022-09-16T04:38:57.899Z,1.80
2022-09-16T04:41:26.446Z,1.40
2022-09-16T04:43:58.220Z,1.80
2022-09-16T04:46:27.346Z,1.53
2022-09-16T04:48:55.542Z,1.20
2022-09-16T04:51:23.076Z,1.47
2022-09-16T04:53:50.182Z,1.40
2022-09-16T04:56:20.359Z,1.13
2022-09-16T04:58:48.633Z,1.73
2022-09-16T05:01:26.871Z,1.33
2022-09-16T05:03:55.640Z,1.37
2022-09-16T05:06:27.862Z,1.37
2022-09-16T05:08:55.664Z,1.10
2022-09-16T05:11:27.587Z,1.43
2022-09-16T05:13:54.827Z,1.40
2022-09-16T05:16:23.523Z,1.27
2022-09-16T05:18:54.993Z,1.13
2022-09-16T05:21:23.943Z,0.97
2022-09-16T05:23:50.841Z,1.03
2022-09-16T05:26:23.014Z,1.03
2022-09-16T05:28:52.642Z,1.57
2022-09-16T05:31:26.776Z,1.03
2022-09-16T05:33:56.435Z,1.20
2022-09-16T05:36:24.103Z,1.10
2022-09-16T05:39:11.043Z,1.10
2022-09-16T05:41:37.766Z,1.40
2022-09-16T05:44:06.482Z,1.27
2022-09-16T05:46:33.595Z,1.40
2022-09-16T05:49:00.320Z,1.40
2022-09-16T05:51:27.586Z,1.63
2022-09-16T05:53:55.291Z,1.10
2022-09-16T05:56:27.242Z,1.07
2022-09-16T05:58:55.336Z,1.30
2022-09-16T06:01:27.465Z,1.47
2022-09-16T06:03:55.093Z,1.50
2022-09-16T06:06:31.836Z,1.10
2022-09-16T06:09:01.674Z,0.90
2022-09-16T06:11:28.890Z,1.00
2022-09-16T06:13:57.269Z,1.10
2022-09-16T06:16:27.932Z,0.90
2022-09-16T06:18:55.625Z,0.87
2022-09-16T06:21:23.286Z,1.00
2022-09-16T06:23:49.907Z,1.17
2022-09-16T06:26:19.852Z,1.33
2022-09-16T06:28:47.094Z,1.00
2022-09-16T06:31:19.774Z,1.23
2022-09-16T06:33:46.626Z,1.27
2022-09-16T06:36:17.715Z,1.30
2022-09-16T06:38:45.736Z,1.17
2022-09-16T06:41:13.879Z,1.30
2022-09-16T06:43:41.100Z,1.10
2022-09-16T06:46:13.283Z,1.00
2022-09-16T06:48:41.122Z,1.00
2022-09-16T06:51:10.874Z,1.10
2022-09-16T06:53:37.571Z,0.90
2022-09-16T06:56:07.167Z,1.10
2022-09-16T06:58:35.781Z,1.07
2022-09-16T07:01:10.310Z,0.63
2022-09-16T07:03:43.096Z,1.30
2022-09-16T07:06:11.417Z,0.80
2022-09-16T07:08:38.922Z,0.70
2022-09-16T07:11:12.848Z,0.80
2022-09-16T07:13:39.814Z,1.00
2022-09-16T07:16:13.302Z,1.10
2022-09-16T07:18:41.241Z,0.83
2022-09-16T07:21:10.095Z,0.83
2022-09-16T07:23:38.101Z,0.90
2022-09-16T07:26:06.374Z,0.70
2022-09-16T07:28:34.081Z,0.70
2022-09-16T07:31:05.920Z,0.87
2022-09-16T07:33:37.058Z,1.03
2022-09-16T07:36:07.921Z,1.00
2022-09-16T07:38:35.252Z,0.80
2022-09-16T07:41:23.381Z,1.00
2022-09-16T07:43:50.665Z,1.17
2022-09-16T07:46:19.708Z,0.80
2022-09-16T07:48:48.109Z,1.17
2022-09-16T07:51:20.614Z,1.30
2022-09-16T07:53:48.134Z,0.90
2022-09-16T07:56:19.894Z,0.70
2022-09-16T07:58:47.662Z,0.90
2022-09-16T08:01:16.399Z,0.80
2022-09-16T08:03:45.019Z,1.23
2022-09-16T08:06:21.441Z,0.80
2022-09-16T08:08:50.901Z,1.10
2022-09-16T08:11:17.570Z,0.50
2022-09-16T08:13:45.354Z,0.77
2022-09-16T08:16:18.506Z,0.70
2022-09-16T08:18:47.140Z,0.60
2022-09-16T08:21:20.071Z,0.90
2022-09-16T08:23:47.101Z,0.80
2022-09-16T08:26:14.997Z,0.70
2022-09-16T08:29:07.259Z,0.70
2022-09-16T08:31:30.969Z,0.70
2022-09-16T08:33:58.034Z,0.90
2022-09-16T08:36:25.765Z,0.70
2022-09-16T08:38:55.523Z,0.47
2022-09-16T08:42:00.227Z,0.63
2022-09-16T08:44:33.058Z,0.60
2022-09-16T08:47:23.217Z,0.70
2022-09-16T08:49:51.240Z,0.70
2022-09-16T08:52:32.012Z,0.70
2022-09-16T08:55:20.416Z,0.60
2022-09-16T08:58:03.871Z,0.43
2022-09-16T09:00:31.470Z,0.60
2022-09-16T09:03:16.487Z,0.67
2022-09-16T09:06:22.132Z,0.60
2022-09-16T09:09:19.922Z,0.50
2022-09-16T09:11:58.286Z,0.70
2022-09-16T09:15:06.328Z,0.87
2022-09-16T09:17:48.573Z,0.40
2022-09-16T09:20:33.379Z,0.60
2022-09-16T09:23:27.640Z,0.63
2022-09-16T09:26:13.630Z,0.70
2022-09-16T09:29:10.979Z,0.60
2022-09-16T09:31:41.139Z,0.60
2022-09-16T09:34:44.476Z,0.80
2022-09-16T09:37:42.081Z,0.60
2022-09-16T09:40:13.895Z,0.60
2022-09-16T09:43:01.770Z,0.90
2022-09-16T09:45:35.382Z,0.80
2022-09-16T09:48:10.318Z,0.70
2022-09-16T09:50:48.728Z,0.70
2022-09-16T09:53:28.058Z,1.20
2022-09-16T09:56:36.657Z,0.90
2022-09-16T09:59:22.005Z,1.00
2022-09-16T10:01:57.881Z,0.77
2022-09-16T10:04:24.790Z,0.87
2022-09-16T10:06:54.672Z,0.70
2022-09-16T10:09:22.551Z,0.60
2022-09-16T10:11:52.794Z,0.70
2022-09-16T10:14:34.804Z,0.60
2022-09-16T10:17:04.664Z,0.60
2022-09-16T10:20:00.103Z,0.70
2022-09-16T10:22:29.631Z,0.70
2022-09-16T10:25:21.029Z,0.73
2022-09-16T10:27:58.166Z,0.80
2022-09-16T10:30:24.820Z,0.83
2022-09-16T10:33:02.169Z,0.40
2022-09-16T10:35:30.803Z,0.47
2022-09-16T10:38:02.169Z,0.50
2022-09-16T10:40:29.673Z,0.73
2022-09-16T10:43:03.954Z,0.60
2022-09-16T10:45:36.369Z,1.13
2022-09-16T10:48:21.529Z,0.63
2022-09-16T10:51:00.263Z,0.60
2022-09-16T10:53:32.223Z,0.60
2022-09-16T10:56:01.725Z,0.70
2022-09-16T10:58:28.400Z,0.60
2022-09-16T11:00:58.205Z,0.90
2022-09-16T11:03:49.981Z,0.70
2022-09-16T11:06:28.512Z,0.70
2022-09-16T11:09:04.957Z,0.60
2022-09-16T11:11:55.215Z,0.57
2022-09-16T11:15:01.889Z,0.70
2022-09-16T11:17:55.061Z,0.73
2022-09-16T11:20:34.969Z,1.63
2022-09-16T11:23:30.226Z,0.70
2022-09-16T11:26:07.460Z,0.90
2022-09-16T11:29:00.540Z,0.80
2022-09-16T11:31:41.267Z,0.97
2022-09-16T11:34:35.532Z,0.67
2022-09-16T11:37:20.762Z,0.70
2022-09-16T11:40:06.587Z,0.50
2022-09-16T11:42:43.289Z,0.40
2022-09-16T11:45:29.101Z,0.80
2022-09-16T11:48:18.380Z,0.70
2022-09-16T11:51:12.117Z,0.50
2022-09-16T11:53:54.350Z,0.50
2022-09-16T11:56:43.414Z,0.50
2022-09-16T11:59:33.895Z,0.80
2022-09-16T12:02:14.115Z,0.90
2022-09-16T12:05:06.103Z,1.00
2022-09-16T12:07:47.515Z,0.40
2022-09-16T12:10:37.982Z,0.57
2022-09-16T12:13:10.995Z,0.60
2022-09-16T12:16:02.330Z,0.60
2022-09-16T12:18:38.444Z,0.63
2022-09-16T12:21:25.330Z,0.70
2022-09-16T12:24:06.450Z,0.90
2022-09-16T12:26:45.352Z,0.60
2022-09-16T12:29:16.083Z,0.80
2022-09-16T12:31:52.525Z,0.60
2022-09-16T12:34:27.121Z,0.77
2022-09-16T12:37:17.845Z,0.70
2022-09-16T12:39:45.273Z,0.53
2022-09-16T12:42:21.037Z,0.50
2022-09-16T12:45:23.465Z,0.50
2022-09-16T12:48:04.773Z,0.40
2022-09-16T12:50:54.274Z,0.70
2022-09-16T12:53:41.800Z,0.50
2022-09-16T12:56:52.110Z,0.43
2022-09-16T12:59:37.127Z,0.60
2022-09-16T13:02:16.902Z,0.50
2022-09-16T13:04:47.956Z,0.93
2022-09-16T13:07:28.050Z,0.60
2022-09-16T13:10:46.727Z,0.50
2022-09-16T13:13:24.410Z,0.60
2022-09-16T13:16:00.201Z,0.50
2022-09-16T13:18:44.687Z,0.70
2022-09-16T13:21:27.122Z,0.50
2022-09-16T13:24:01.634Z,0.50
2022-09-16T13:26:39.836Z,0.50
2022-09-16T13:29:39.670Z,0.50
2022-09-16T13:32:24.319Z,0.90
2022-09-16T13:35:01.898Z,0.60
2022-09-16T13:37:28.546Z,0.70
2022-09-16T13:39:55.162Z,0.43
2022-09-16T13:42:22.128Z,0.65
2022-09-16T13:44:48.793Z,0.50
2022-09-16T13:47:18.952Z,0.52
2022-09-16T13:49:56.252Z,1.00
2022-09-16T13:52:36.153Z,0.80
2022-09-16T13:55:11.091Z,0.83
2022-09-16T13:57:41.204Z,0.70
2022-09-16T14:00:37.678Z,0.70
2022-09-16T14:03:43.372Z,0.70
2022-09-16T14:06:27.533Z,0.90
2022-09-16T14:09:19.482Z,0.70
2022-09-16T14:11:58.372Z,0.63
2022-09-16T14:14:46.478Z,0.87
2022-09-16T14:17:22.645Z,0.70
2022-09-16T14:19:52.726Z,0.83
2022-09-16T14:22:22.962Z,0.93
2022-09-16T14:24:56.434Z,0.90
2022-09-16T14:27:39.516Z,0.80
2022-09-16T14:30:26.875Z,0.90
2022-09-16T14:32:53.910Z,0.73
2022-09-16T14:35:26.501Z,0.80
2022-09-16T14:37:58.797Z,0.90
2022-09-16T14:40:26.711Z,0.93
2022-09-16T14:43:06.626Z,0.40
2022-09-16T14:45:36.603Z,0.60
2022-09-16T14:48:09.475Z,0.57
2022-09-16T14:50:42.572Z,0.50
2022-09-16T14:53:34.801Z,0.60
2022-09-16T14:56:02.636Z,0.70
2022-09-16T14:58:32.088Z,0.80
2022-09-16T15:01:08.925Z,0.70
2022-09-16T15:03:56.997Z,0.80
2022-09-16T15:06:28.567Z,0.67
2022-09-16T15:09:04.072Z,0.60
2022-09-16T15:11:47.654Z,0.60
2022-09-16T15:14:23.513Z,0.60
2022-09-16T15:16:58.736Z,0.50
2022-09-16T15:19:33.946Z,0.47
2022-09-16T15:22:00.914Z,0.50
2022-09-16T15:24:31.266Z,0.43
2022-09-16T15:26:59.220Z,0.50
2022-09-16T15:29:28.292Z,0.50
2022-09-16T15:31:55.594Z,0.50
2022-09-16T15:34:23.837Z,0.60
2022-09-16T15:36:55.517Z,0.50
2022-09-16T15:39:37.785Z,0.50
2022-09-16T15:42:16.808Z,0.60
2022-09-16T15:44:50.091Z,0.50
2022-09-16T15:47:29.448Z,0.43
2022-09-16T15:49:59.800Z,0.40
2022-09-16T15:52:26.463Z,0.50
2022-09-16T15:54:58.997Z,0.57
2022-09-16T15:57:38.363Z,0.50
2022-09-16T16:00:12.925Z,0.43
2022-09-16T16:02:49.389Z,0.60
2022-09-16T16:05:18.375Z,0.50
2022-09-16T16:07:47.769Z,0.57
2022-09-16T16:10:20.222Z,0.50
2022-09-16T16:12:49.106Z,0.70
2022-09-16T16:15:18.388Z,0.50
2022-09-16T16:17:45.463Z,0.70
2022-09-16T16:20:14.723Z,0.60
2022-09-16T16:22:42.109Z,0.80
2022-09-16T16:25:09.302Z,1.00
2022-09-16T16:27:35.897Z,0.70
2022-09-16T16:30:02.559Z,1.00
2022-09-16T16:32:29.489Z,0.80
2022-09-16T16:34:57.990Z,0.50
2022-09-16T16:37:45.599Z,0.80
2022-09-16T16:40:13.514Z,0.60
2022-09-16T16:42:40.271Z,1.10
2022-09-16T16:45:07.481Z,1.07
2022-09-16T16:47:34.745Z,0.70
2022-09-16T16:50:02.005Z,0.80
2022-09-16T16:52:28.597Z,0.90
2022-09-16T16:54:55.112Z,1.00
2022-09-16T16:57:21.690Z,0.70
2022-09-16T16:59:48.230Z,1.00
2022-09-16T17:02:15.699Z,0.80
2022-09-16T17:04:42.289Z,0.70
2022-09-16T17:07:25.194Z,0.70
2022-09-16T17:09:52.966Z,0.93
2022-09-16T17:12:19.534Z,0.90
2022-09-16T17:14:46.133Z,0.60
2022-09-16T17:17:12.693Z,0.70
2022-09-16T17:19:39.227Z,0.90
2022-09-16T17:22:06.091Z,0.90
2022-09-16T17:24:34.496Z,0.60
2022-09-16T17:27:01.861Z,0.63
2022-09-16T17:29:28.497Z,0.90
2022-09-16T17:31:56.872Z,0.83
2022-09-16T17:34:26.103Z,0.93
2022-09-16T17:36:52.635Z,0.83
2022-09-16T17:39:20.824Z,1.13
2022-09-16T17:41:49.090Z,1.33
2022-09-16T17:44:17.008Z,1.10
2022-09-16T17:46:44.381Z,1.10
2022-09-16T17:49:15.700Z,1.50
2022-09-16T17:51:43.170Z,1.07
2022-09-16T17:54:10.683Z,1.17
2022-09-16T17:56:37.438Z,1.23
2022-09-16T17:59:04.393Z,1.60
2022-09-16T18:01:31.651Z,1.37
2022-09-16T18:03:58.575Z,1.40
2022-09-16T18:06:31.296Z,1.30
2022-09-16T18:09:02.161Z,1.13
2022-09-16T18:11:28.778Z,1.40
2022-09-16T18:13:59.985Z,1.10
2022-09-16T18:16:28.315Z,1.17
2022-09-16T18:18:56.923Z,1.50
2022-09-16T18:21:24.950Z,0.97
2022-09-16T18:23:57.827Z,0.97
2022-09-16T18:26:25.719Z,1.50
2022-09-16T18:29:17.942Z,1.00
2022-09-16T18:31:47.115Z,0.90
2022-09-16T18:34:15.905Z,1.77
2022-09-16T18:36:43.114Z,1.23
2022-09-16T18:39:15.631Z,1.17
2022-09-16T18:41:44.732Z,0.83
2022-09-16T18:44:20.567Z,0.83
2022-09-16T18:46:47.842Z,0.90
2022-09-16T18:49:16.445Z,1.23
2022-09-16T18:51:51.327Z,1.00
2022-09-16T18:54:24.400Z,0.87
2022-09-16T18:56:51.468Z,1.10
2022-09-16T18:59:22.528Z,0.80
2022-09-16T19:01:52.450Z,1.00
2022-09-16T19:04:24.368Z,0.70
2022-09-16T19:06:53.899Z,0.93
2022-09-16T19:09:23.307Z,0.90
2022-09-16T19:11:52.645Z,1.10
2022-09-16T19:14:22.191Z,0.83
2022-09-16T19:16:48.773Z,1.20
2022-09-16T19:19:15.441Z,1.00
2022-09-16T19:21:43.436Z,1.10
2022-09-16T19:24:16.235Z,1.43
2022-09-16T19:26:44.025Z,1.20
2022-09-16T19:29:11.845Z,1.00
2022-09-16T19:31:40.465Z,1.20
2022-09-16T19:34:07.934Z,0.90
2022-09-16T19:36:35.578Z,1.83
2022-09-16T19:39:03.343Z,0.80
2022-09-16T19:41:32.218Z,0.90
2022-09-16T19:44:01.057Z,0.80
2022-09-16T19:46:28.934Z,1.00
2022-09-16T19:48:55.641Z,0.70
2022-09-16T19:51:23.959Z,1.30
2022-09-16T19:53:52.267Z,0.80
2022-09-16T19:56:21.631Z,1.07
2022-09-16T19:58:49.362Z,1.63
2022-09-16T20:01:18.737Z,1.33
2022-09-16T20:03:46.186Z,1.33
2022-09-16T20:06:19.028Z,1.37
2022-09-16T20:08:47.143Z,1.83
2022-09-16T20:11:17.165Z,1.03
2022-09-16T20:13:55.388Z,1.27
2022-09-16T20:16:25.119Z,1.10
2022-09-16T20:18:52.349Z,1.90
2022-09-16T20:21:22.043Z,1.50
2022-09-16T20:23:48.774Z,1.20
2022-09-16T20:26:19.642Z,1.30
2022-09-16T20:28:51.418Z,1.30
2022-09-16T20:31:21.773Z,1.27
2022-09-16T20:33:48.972Z,1.47
2022-09-16T20:36:17.014Z,1.00
2022-09-16T20:38:44.461Z,1.50
2022-09-16T20:41:14.995Z,1.37
2022-09-16T20:43:41.855Z,1.40
2022-09-16T20:46:36.104Z,1.50
2022-09-16T20:49:06.425Z,1.47
2022-09-16T20:51:34.434Z,0.90
2022-09-16T20:54:10.158Z,1.27
2022-09-16T20:56:42.137Z,1.37
2022-09-16T20:59:11.920Z,1.47
2022-09-16T21:01:41.172Z,1.20
2022-09-16T21:04:14.440Z,1.10
2022-09-16T21:06:41.481Z,1.23
2022-09-16T21:09:13.473Z,1.10
2022-09-16T21:11:43.529Z,0.93
2022-09-16T21:14:11.973Z,1.10
2022-09-16T21:16:39.458Z,1.40
2022-09-16T21:19:12.879Z,1.10
2022-09-16T21:21:41.548Z,1.03
2022-09-16T21:24:09.623Z,0.97
2022-09-16T21:26:37.810Z,1.53
2022-09-16T21:29:13.118Z,1.20
2022-09-16T21:31:41.651Z,1.73
2022-09-16T21:34:20.027Z,1.00
2022-09-16T21:36:47.740Z,1.50
2022-09-16T21:39:15.606Z,1.10
2022-09-16T21:41:44.359Z,1.30
2022-09-16T21:44:11.879Z,1.30
2022-09-16T21:46:42.884Z,1.17
2022-09-16T21:49:22.223Z,1.20
2022-09-16T21:51:49.397Z,1.27
2022-09-16T21:54:19.906Z,1.40
2022-09-16T21:56:47.767Z,1.30
2022-09-16T21:59:14.485Z,0.90
2022-09-16T22:01:41.240Z,1.30
2022-09-16T22:04:14.043Z,1.07
2022-09-16T22:06:41.329Z,1.47
2022-09-16T22:09:09.445Z,1.43
2022-09-16T22:11:38.290Z,1.30
2022-09-16T22:14:05.268Z,1.50
2022-09-16T22:16:34.891Z,1.23
2022-09-16T22:19:16.214Z,1.20
2022-09-16T22:21:45.200Z,1.13
2022-09-16T22:24:12.572Z,1.27
2022-09-16T22:26:39.808Z,1.57
2022-09-16T22:29:08.844Z,1.37
2022-09-16T22:31:37.684Z,1.50
2022-09-16T22:34:04.702Z,1.00
2022-09-16T22:36:33.459Z,1.00
2022-09-16T22:39:04.798Z,1.67
2022-09-16T22:41:32.115Z,1.33
2022-09-16T22:43:58.922Z,1.80
2022-09-16T22:46:35.160Z,1.50
2022-09-16T22:49:01.919Z,1.50
2022-09-16T22:51:29.077Z,1.17
2022-09-16T22:53:55.790Z,1.70
2022-09-16T22:56:31.634Z,1.50
2022-09-16T22:58:59.335Z,1.60
2022-09-16T23:01:34.788Z,1.07
2022-09-16T23:04:03.104Z,2.17
2022-09-16T23:06:31.342Z,1.50
2022-09-16T23:08:58.407Z,1.40
2022-09-16T23:11:30.915Z,1.97
2022-09-16T23:13:58.081Z,1.37
2022-09-16T23:16:30.898Z,1.50
2022-09-16T23:19:00.650Z,1.30
2022-09-16T23:21:27.386Z,1.53
2022-09-16T23:23:56.528Z,1.13
2022-09-16T23:26:29.758Z,1.90
2022-09-16T23:28:59.062Z,1.50
2022-09-16T23:31:28.285Z,1.10
2022-09-16T23:33:55.745Z,1.67
2022-09-16T23:36:23.625Z,1.97
2022-09-16T23:38:50.210Z,1.60
2022-09-16T23:41:19.704Z,1.87
2022-09-16T23:43:47.933Z,1.90
2022-09-16T23:46:16.691Z,1.80
2022-09-16T23:48:44.407Z,1.67
2022-09-16T23:51:12.550Z,1.57
2022-09-16T23:53:39.786Z,1.57
2022-09-16T23:56:08.178Z,1.60
2022-09-16T23:58:35.210Z,1.97
